sensor_id;sensor_type;location;lat;lon;timestamp;pressure;altitude;pressure_sealevel;temperature;humidity
5966;BME280;3009;43.224;27.976;2023-07-02T00:01:18;99723.97;;;20.06;100.00
5966;BME280;3009;43.224;27.976;2023-07-02T00:03:46;99718.16;;;20.11;100.00
5966;BME280;3009;43.224;27.976;2023-07-02T00:06:15;99717.38;;;20.14;100.00
5966;BME280;3009;43.224;27.976;2023-07-02T00:08:44;99724.38;;;20.12;100.00
5966;BME280;3009;43.224;27.976;2023-07-02T00:11:15;99713.09;;;20.17;100.00
5966;BME280;3009;43.224;27.976;2023-07-02T00:13:44;99713.88;;;20.17;100.00
5966;BME280;3009;43.224;27.976;2023-07-02T00:16:13;99703.75;;;20.14;100.00
5966;BME280;3009;43.224;27.976;2023-07-02T00:18:42;99707.25;;;20.11;100.00
5966;BME280;3009;43.224;27.976;2023-07-02T00:21:10;99701.03;;;20.07;100.00
5966;BME280;3009;43.224;27.976;2023-07-02T00:23:40;99695.19;;;20.01;100.00
5966;BME280;3009;43.224;27.976;2023-07-02T00:26:08;99694.81;;;19.92;100.00
5966;BME280;3009;43.224;27.976;2023-07-02T00:28:38;99692.09;;;19.92;100.00
5966;BME280;3009;43.224;27.976;2023-07-02T00:31:07;99693.66;;;19.82;100.00
5966;BME280;3009;43.224;27.976;2023-07-02T00:33:42;99699.06;;;19.72;100.00
5966;BME280;3009;43.224;27.976;2023-07-02T00:36:13;99694.00;;;19.74;100.00
5966;BME280;3009;43.224;27.976;2023-07-02T00:38:46;99696.69;;;19.66;100.00
5966;BME280;3009;43.224;27.976;2023-07-02T00:41:17;99690.84;;;19.61;100.00
5966;BME280;3009;43.224;27.976;2023-07-02T00:43:49;99696.69;;;19.66;100.00
5966;BME280;3009;43.224;27.976;2023-07-02T00:46:23;99692.81;;;19.60;100.00
5966;BME280;3009;43.224;27.976;2023-07-02T00:48:56;99695.91;;;19.59;100.00
5966;BME280;3009;43.224;27.976;2023-07-02T00:51:28;99692.03;;;19.53;100.00
5966;BME280;3009;43.224;27.976;2023-07-02T00:53:59;99691.25;;;19.52;100.00
5966;BME280;3009;43.224;27.976;2023-07-02T00:56:30;99693.63;;;19.72;100.00
5966;BME280;3009;43.224;27.976;2023-07-02T00:59:01;99684.31;;;19.80;100.00
5966;BME280;3009;43.224;27.976;2023-07-02T01:01:31;99690.16;;;19.86;100.00
5966;BME280;3009;43.224;27.976;2023-07-02T01:04:09;99688.19;;;19.86;100.00
5966;BME280;3009;43.224;27.976;2023-07-02T01:06:41;99686.66;;;19.89;100.00
5966;BME280;3009;43.224;27.976;2023-07-02T01:09:11;99687.81;;;19.88;100.00
5966;BME280;3009;43.224;27.976;2023-07-02T01:11:45;99684.31;;;19.87;100.00
5966;BME280;3009;43.224;27.976;2023-07-02T01:14:22;99686.25;;;19.83;100.00
5966;BME280;3009;43.224;27.976;2023-07-02T01:16:55;99685.50;;;19.82;100.00
5966;BME280;3009;43.224;27.976;2023-07-02T01:19:38;99682.00;;;19.86;100.00
5966;BME280;3009;43.224;27.976;2023-07-02T01:22:11;99690.13;;;19.93;100.00
5966;BME280;3009;43.224;27.976;2023-07-02T01:24:42;99692.09;;;19.96;100.00
5966;BME280;3009;43.224;27.976;2023-07-02T01:27:12;99688.59;;;19.95;100.00
5966;BME280;3009;43.224;27.976;2023-07-02T01:29:43;99676.53;;;19.89;100.00
5966;BME280;3009;43.224;27.976;2023-07-02T01:32:14;99676.53;;;19.75;100.00
5966;BME280;3009;43.224;27.976;2023-07-02T01:34:44;99686.59;;;19.71;100.00
5966;BME280;3009;43.224;27.976;2023-07-02T01:37:16;99684.66;;;19.60;100.00
5966;BME280;3009;43.224;27.976;2023-07-02T01:39:45;99681.16;;;19.53;100.00
5966;BME280;3009;43.224;27.976;2023-07-02T01:42:14;99688.13;;;19.50;100.00
5966;BME280;3009;43.224;27.976;2023-07-02T01:44:44;99689.28;;;19.42;100.00
5966;BME280;3009;43.224;27.976;2023-07-02T01:47:13;99691.19;;;19.41;100.00
5966;BME280;3009;43.224;27.976;2023-07-02T01:49:44;99690.44;;;19.37;100.00
5966;BME280;3009;43.224;27.976;2023-07-02T01:52:12;99695.50;;;19.39;100.00
5966;BME280;3009;43.224;27.976;2023-07-02T01:54:41;99682.28;;;19.41;100.00
5966;BME280;3009;43.224;27.976;2023-07-02T01:57:09;99684.97;;;19.34;100.00
5966;BME280;3009;43.224;27.976;2023-07-02T01:59:38;99682.25;;;19.26;100.00
5966;BME280;3009;43.224;27.976;2023-07-02T02:02:06;99681.03;;;19.20;100.00
5966;BME280;3009;43.224;27.976;2023-07-02T02:04:35;99682.59;;;19.21;100.00
5966;BME280;3009;43.224;27.976;2023-07-02T02:07:04;99689.63;;;19.33;100.00
5966;BME280;3009;43.224;27.976;2023-07-02T02:09:33;99690.03;;;19.32;100.00
5966;BME280;3009;43.224;27.976;2023-07-02T02:12:01;99688.84;;;19.29;100.00
5966;BME280;3009;43.224;27.976;2023-07-02T02:14:30;99684.19;;;19.26;100.00
5966;BME280;3009;43.224;27.976;2023-07-02T02:16:58;99689.97;;;19.17;100.00
5966;BME280;3009;43.224;27.976;2023-07-02T02:19:26;99684.53;;;19.13;100.00
5966;BME280;3009;43.224;27.976;2023-07-02T02:21:55;99684.91;;;19.08;100.00
5966;BME280;3009;43.224;27.976;2023-07-02T02:24:28;99688.41;;;19.09;100.00
5966;BME280;3009;43.224;27.976;2023-07-02T02:27:00;99686.44;;;19.06;100.00
5966;BME280;3009;43.224;27.976;2023-07-02T02:29:31;99693.44;;;19.07;100.00
5966;BME280;3009;43.224;27.976;2023-07-02T02:32:03;99691.88;;;19.06;100.00
5966;BME280;3009;43.224;27.976;2023-07-02T02:34:35;99689.53;;;19.08;100.00
5966;BME280;3009;43.224;27.976;2023-07-02T02:37:07;99694.63;;;19.13;100.00
5966;BME280;3009;43.224;27.976;2023-07-02T02:39:39;99693.88;;;19.16;100.00
5966;BME280;3009;43.224;27.976;2023-07-02T02:42:12;99696.19;;;19.21;100.00
5966;BME280;3009;43.224;27.976;2023-07-02T02:44:43;99703.22;;;19.33;100.00
5966;BME280;3009;43.224;27.976;2023-07-02T02:47:11;99696.63;;;19.38;100.00
5966;BME280;3009;43.224;27.976;2023-07-02T02:49:39;99704.03;;;19.44;100.00
5966;BME280;3009;43.224;27.976;2023-07-02T02:52:08;99699.03;;;19.54;100.00
5966;BME280;3009;43.224;27.976;2023-07-02T02:54:38;99694.34;;;19.43;100.00
5966;BME280;3009;43.224;27.976;2023-07-02T02:57:06;99695.91;;;19.55;100.00
5966;BME280;3009;43.224;27.976;2023-07-02T02:59:35;99698.25;;;19.68;100.00
5966;BME280;3009;43.224;27.976;2023-07-02T03:02:03;99694.41;;;19.83;100.00
5966;BME280;3009;43.224;27.976;2023-07-02T03:04:32;99690.53;;;20.06;100.00
5966;BME280;3009;43.224;27.976;2023-07-02T03:07:00;99689.38;;;20.07;100.00
5966;BME280;3009;43.224;27.976;2023-07-02T03:09:29;99689.34;;;20.14;100.00
5966;BME280;3009;43.224;27.976;2023-07-02T03:11:59;99685.44;;;20.51;100.00
5966;BME280;3009;43.224;27.976;2023-07-02T03:14:28;99686.94;;;20.88;100.00
5966;BME280;3009;43.224;27.976;2023-07-02T03:16:56;99676.06;;;21.62;100.00
5966;BME280;3009;43.224;27.976;2023-07-02T03:19:25;99672.97;;;22.51;100.00
5966;BME280;3009;43.224;27.976;2023-07-02T03:21:56;99655.22;;;23.59;100.00
5966;BME280;3009;43.224;27.976;2023-07-02T03:24:26;99653.69;;;24.29;100.00
5966;BME280;3009;43.224;27.976;2023-07-02T03:26:55;99650.50;;;24.54;100.00
5966;BME280;3009;43.224;27.976;2023-07-02T03:29:25;99649.75;;;25.46;100.00
5966;BME280;3009;43.224;27.976;2023-07-02T03:31:53;99646.78;;;26.36;100.00
5966;BME280;3009;43.224;27.976;2023-07-02T03:34:21;99645.91;;;26.39;100.00
5966;BME280;3009;43.224;27.976;2023-07-02T03:36:50;99647.16;;;26.93;100.00
5966;BME280;3009;43.224;27.976;2023-07-02T03:39:19;99648.63;;;27.11;100.00
5966;BME280;3009;43.224;27.976;2023-07-02T03:41:47;99645.94;;;27.84;98.10
5966;BME280;3009;43.224;27.976;2023-07-02T03:44:16;99649.13;;;28.75;88.62
5966;BME280;3009;43.224;27.976;2023-07-02T03:46:46;99648.88;;;28.60;88.13
5966;BME280;3009;43.224;27.976;2023-07-02T03:49:14;99652.84;;;29.12;82.46
5966;BME280;3009;43.224;27.976;2023-07-02T03:51:43;99653.91;;;29.15;81.21
5966;BME280;3009;43.224;27.976;2023-07-02T03:54:11;99650.84;;;28.81;82.59
5966;BME280;3009;43.224;27.976;2023-07-02T03:56:40;99648.16;;;28.46;85.78
5966;BME280;3009;43.224;27.976;2023-07-02T03:59:08;99654.34;;;28.16;87.01
5966;BME280;3009;43.224;27.976;2023-07-02T04:01:36;99656.91;;;27.49;93.10
5966;BME280;3009;43.224;27.976;2023-07-02T04:04:06;99651.59;;;27.29;95.49
5966;BME280;3009;43.224;27.976;2023-07-02T04:06:35;99650.94;;;27.38;95.23
5966;BME280;3009;43.224;27.976;2023-07-02T04:09:03;99659.16;;;28.02;89.62
5966;BME280;3009;43.224;27.976;2023-07-02T04:11:32;99652.66;;;29.07;84.02
5966;BME280;3009;43.224;27.976;2023-07-02T04:14:01;99663.22;;;30.36;75.09
5966;BME280;3009;43.224;27.976;2023-07-02T04:16:29;99652.00;;;31.28;67.41
5966;BME280;3009;43.224;27.976;2023-07-02T04:18:58;99653.44;;;31.48;65.71
5966;BME280;3009;43.224;27.976;2023-07-02T04:21:28;99651.16;;;31.71;63.67
5966;BME280;3009;43.224;27.976;2023-07-02T04:23:57;99660.47;;;31.83;61.71
5966;BME280;3009;43.224;27.976;2023-07-02T04:26:26;99656.25;;;32.65;58.61
5966;BME280;3009;43.224;27.976;2023-07-02T04:29:14;99656.16;;;32.90;56.39
5966;BME280;3009;43.224;27.976;2023-07-02T04:31:43;99651.44;;;33.11;55.16
5966;BME280;3009;43.224;27.976;2023-07-02T04:34:11;99656.34;;;32.86;54.49
5966;BME280;3009;43.224;27.976;2023-07-02T04:36:41;99659.41;;;33.53;53.57
5966;BME280;3009;43.224;27.976;2023-07-02T04:39:09;99660.31;;;34.27;51.03
5966;BME280;3009;43.224;27.976;2023-07-02T04:41:38;99647.41;;;34.03;50.70
5966;BME280;3009;43.224;27.976;2023-07-02T04:44:06;99659.00;;;34.49;49.27
5966;BME280;3009;43.224;27.976;2023-07-02T04:46:34;99671.22;;;35.15;46.76
5966;BME280;3009;43.224;27.976;2023-07-02T04:49:03;99672.50;;;35.20;45.74
5966;BME280;3009;43.224;27.976;2023-07-02T04:51:31;99668.72;;;35.23;45.91
5966;BME280;3009;43.224;27.976;2023-07-02T04:54:01;99670.41;;;32.97;52.47
5966;BME280;3009;43.224;27.976;2023-07-02T04:56:29;99673.06;;;32.47;55.68
5966;BME280;3009;43.224;27.976;2023-07-02T04:58:58;99679.19;;;33.11;53.90
5966;BME280;3009;43.224;27.976;2023-07-02T05:01:27;99675.03;;;33.00;53.77
5966;BME280;3009;43.224;27.976;2023-07-02T05:03:56;99678.81;;;31.80;58.66
5966;BME280;3009;43.224;27.976;2023-07-02T05:06:24;99674.25;;;30.82;62.88
5966;BME280;3009;43.224;27.976;2023-07-02T05:08:53;99681.75;;;29.80;69.14
5966;BME280;3009;43.224;27.976;2023-07-02T05:11:23;99681.28;;;29.00;75.33
5966;BME280;3009;43.224;27.976;2023-07-02T05:13:51;99687.56;;;28.91;77.41
5966;BME280;3009;43.224;27.976;2023-07-02T05:16:19;99679.81;;;28.42;80.48
5966;BME280;3009;43.224;27.976;2023-07-02T05:18:48;99681.66;;;28.23;83.78
5966;BME280;3009;43.224;27.976;2023-07-02T05:21:17;99677.69;;;28.24;85.78
5966;BME280;3009;43.224;27.976;2023-07-02T05:23:46;99682.91;;;28.09;88.17
5966;BME280;3009;43.224;27.976;2023-07-02T05:26:14;99680.66;;;28.29;86.88
5966;BME280;3009;43.224;27.976;2023-07-02T05:28:44;99679.03;;;28.76;85.76
5966;BME280;3009;43.224;27.976;2023-07-02T05:31:12;99680.97;;;29.61;78.45
5966;BME280;3009;43.224;27.976;2023-07-02T05:33:41;99683.69;;;31.27;69.65
5966;BME280;3009;43.224;27.976;2023-07-02T05:36:09;99682.25;;;32.53;62.23
5966;BME280;3009;43.224;27.976;2023-07-02T05:38:38;99685.19;;;32.89;59.36
5966;BME280;3009;43.224;27.976;2023-07-02T05:41:06;99681.31;;;32.56;59.84
5966;BME280;3009;43.224;27.976;2023-07-02T05:43:34;99692.25;;;31.96;62.37
5966;BME280;3009;43.224;27.976;2023-07-02T05:46:04;99690.69;;;30.95;66.37
5966;BME280;3009;43.224;27.976;2023-07-02T05:48:32;99687.78;;;30.89;68.77
5966;BME280;3009;43.224;27.976;2023-07-02T05:51:01;99696.19;;;31.14;68.75
5966;BME280;3009;43.224;27.976;2023-07-02T05:53:30;99689.84;;;32.13;62.57
5966;BME280;3009;43.224;27.976;2023-07-02T05:55:59;99691.47;;;31.72;64.81
5966;BME280;3009;43.224;27.976;2023-07-02T05:58:28;99690.81;;;32.10;63.05
5966;BME280;3009;43.224;27.976;2023-07-02T06:01:17;99695.19;;;31.93;63.04
5966;BME280;3009;43.224;27.976;2023-07-02T06:03:49;99696.56;;;31.73;63.88
5966;BME280;3009;43.224;27.976;2023-07-02T06:06:17;99694.16;;;31.23;65.73
5966;BME280;3009;43.224;27.976;2023-07-02T06:08:47;99686.66;;;32.06;62.63
5966;BME280;3009;43.224;27.976;2023-07-02T06:11:15;99683.47;;;31.74;63.76
5966;BME280;3009;43.224;27.976;2023-07-02T06:13:44;99682.50;;;32.79;58.87
5966;BME280;3009;43.224;27.976;2023-07-02T06:16:12;99683.25;;;32.80;58.87
5966;BME280;3009;43.224;27.976;2023-07-02T06:18:42;99679.66;;;33.95;55.01
5966;BME280;3009;43.224;27.976;2023-07-02T06:21:10;99673.47;;;33.85;54.30
5966;BME280;3009;43.224;27.976;2023-07-02T06:23:42;99674.06;;;33.03;56.91
5966;BME280;3009;43.224;27.976;2023-07-02T06:26:11;99683.50;;;31.31;63.89
5966;BME280;3009;43.224;27.976;2023-07-02T06:28:40;99677.56;;;31.14;66.99
5966;BME280;3009;43.224;27.976;2023-07-02T06:31:08;99671.41;;;30.39;71.13
5966;BME280;3009;43.224;27.976;2023-07-02T06:33:39;99666.94;;;29.96;75.70
5966;BME280;3009;43.224;27.976;2023-07-02T06:36:11;99660.19;;;29.47;78.24
5966;BME280;3009;43.224;27.976;2023-07-02T06:38:44;99671.34;;;29.25;81.15
5966;BME280;3009;43.224;27.976;2023-07-02T06:41:12;99671.75;;;29.64;79.74
5966;BME280;3009;43.224;27.976;2023-07-02T06:43:41;99678.91;;;30.02;76.51
5966;BME280;3009;43.224;27.976;2023-07-02T06:46:10;99668.13;;;29.04;83.83
5966;BME280;3009;43.224;27.976;2023-07-02T06:48:39;99673.19;;;29.28;82.51
5966;BME280;3009;43.224;27.976;2023-07-02T06:51:07;99682.03;;;28.91;84.60
5966;BME280;3009;43.224;27.976;2023-07-02T06:53:37;99679.66;;;28.58;87.83
5966;BME280;3009;43.224;27.976;2023-07-02T06:56:07;99673.09;;;28.08;94.27
5966;BME280;3009;43.224;27.976;2023-07-02T06:58:36;99677.44;;;27.70;98.87
5966;BME280;3009;43.224;27.976;2023-07-02T07:01:04;99682.59;;;26.62;100.00
5966;BME280;3009;43.224;27.976;2023-07-02T07:03:34;99678.25;;;27.32;100.00
5966;BME280;3009;43.224;27.976;2023-07-02T07:06:03;99676.31;;;28.63;94.99
5966;BME280;3009;43.224;27.976;2023-07-02T07:08:31;99675.69;;;29.44;87.30
5966;BME280;3009;43.224;27.976;2023-07-02T07:11:01;99684.97;;;29.78;85.17
5966;BME280;3009;43.224;27.976;2023-07-02T07:13:30;99689.84;;;30.33;79.96
5966;BME280;3009;43.224;27.976;2023-07-02T07:15:58;99692.44;;;30.09;81.80
5966;BME280;3009;43.224;27.976;2023-07-02T07:18:26;99688.44;;;30.19;81.41
5966;BME280;3009;43.224;27.976;2023-07-02T07:20:59;99689.34;;;30.72;79.33
5966;BME280;3009;43.224;27.976;2023-07-02T07:23:27;99701.63;;;31.99;70.47
5966;BME280;3009;43.224;27.976;2023-07-02T07:25:56;99688.69;;;33.34;63.12
5966;BME280;3009;43.224;27.976;2023-07-02T07:28:25;99686.25;;;34.18;58.82
5966;BME280;3009;43.224;27.976;2023-07-02T07:30:54;99682.84;;;34.82;55.49
5966;BME280;3009;43.224;27.976;2023-07-02T07:33:22;99677.19;;;34.44;55.76
5966;BME280;3009;43.224;27.976;2023-07-02T07:35:50;99681.03;;;33.85;58.16
5966;BME280;3009;43.224;27.976;2023-07-02T07:38:19;99686.09;;;32.56;64.24
5966;BME280;3009;43.224;27.976;2023-07-02T07:40:47;99698.34;;;31.86;69.30
5966;BME280;3009;43.224;27.976;2023-07-02T07:43:16;99687.34;;;31.34;72.95
5966;BME280;3009;43.224;27.976;2023-07-02T07:45:46;99683.50;;;30.79;75.00
5966;BME280;3009;43.224;27.976;2023-07-02T07:48:15;99685.53;;;30.51;77.22
5966;BME280;3009;43.224;27.976;2023-07-02T07:50:43;99677.72;;;30.40;78.80
5966;BME280;3009;43.224;27.976;2023-07-02T07:53:12;99673.16;;;29.78;80.11
5966;BME280;3009;43.224;27.976;2023-07-02T07:55:40;99677.66;;;29.84;79.25
5966;BME280;3009;43.224;27.976;2023-07-02T07:58:09;99682.28;;;29.97;78.10
5966;BME280;3009;43.224;27.976;2023-07-02T08:00:38;99685.69;;;30.47;74.11
5966;BME280;3009;43.224;27.976;2023-07-02T08:03:18;99686.59;;;30.63;72.68
5966;BME280;3009;43.224;27.976;2023-07-02T08:05:47;99683.97;;;30.78;71.52
5966;BME280;3009;43.224;27.976;2023-07-02T08:08:15;99699.94;;;31.01;70.71
5966;BME280;3009;43.224;27.976;2023-07-02T08:10:44;99694.97;;;31.05;68.83
5966;BME280;3009;43.224;27.976;2023-07-02T08:13:14;99695.13;;;31.11;70.02
5966;BME280;3009;43.224;27.976;2023-07-02T08:15:44;99693.19;;;30.74;71.84
5966;BME280;3009;43.224;27.976;2023-07-02T08:18:14;99699.72;;;31.14;70.28
5966;BME280;3009;43.224;27.976;2023-07-02T08:20:44;99701.47;;;31.36;68.97
5966;BME280;3009;43.224;27.976;2023-07-02T08:23:14;99698.50;;;31.15;70.85
5966;BME280;3009;43.224;27.976;2023-07-02T08:25:42;99697.63;;;31.00;73.04
5966;BME280;3009;43.224;27.976;2023-07-02T08:28:11;99699.97;;;30.55;76.59
5966;BME280;3009;43.224;27.976;2023-07-02T08:30:39;99694.13;;;29.57;81.45
5966;BME280;3009;43.224;27.976;2023-07-02T08:33:08;99697.88;;;29.31;86.89
5966;BME280;3009;43.224;27.976;2023-07-02T08:35:37;99698.50;;;29.04;91.32
5966;BME280;3009;43.224;27.976;2023-07-02T08:38:06;99696.84;;;28.62;98.04
5966;BME280;3009;43.224;27.976;2023-07-02T08:40:35;99700.06;;;28.83;97.99
5966;BME280;3009;43.224;27.976;2023-07-02T08:43:03;99688.09;;;29.08;96.83
5966;BME280;3009;43.224;27.976;2023-07-02T08:45:32;99681.31;;;29.31;96.33
5966;BME280;3009;43.224;27.976;2023-07-02T08:48:01;99674.78;;;29.47;97.75
5966;BME280;3009;43.224;27.976;2023-07-02T08:50:29;99671.59;;;29.67;93.81
5966;BME280;3009;43.224;27.976;2023-07-02T08:52:59;99680.75;;;29.96;92.73
5966;BME280;3009;43.224;27.976;2023-07-02T08:55:27;99688.13;;;29.99;91.15
5966;BME280;3009;43.224;27.976;2023-07-02T08:57:57;99685.03;;;29.97;92.44
5966;BME280;3009;43.224;27.976;2023-07-02T09:00:27;99689.81;;;29.96;91.29
5966;BME280;3009;43.224;27.976;2023-07-02T09:02:58;99690.22;;;29.36;96.72
5966;BME280;3009;43.224;27.976;2023-07-02T09:05:26;99690.59;;;29.15;97.48
5966;BME280;3009;43.224;27.976;2023-07-02T09:07:54;99690.13;;;29.17;96.60
5966;BME280;3009;43.224;27.976;2023-07-02T09:10:31;99693.41;;;29.25;96.11
5966;BME280;3009;43.224;27.976;2023-07-02T09:13:03;99694.72;;;29.11;98.76
5966;BME280;3009;43.224;27.976;2023-07-02T09:15:36;99694.25;;;29.12;96.57
5966;BME280;3009;43.224;27.976;2023-07-02T09:18:17;99704.56;;;28.68;100.00
5966;BME280;3009;43.224;27.976;2023-07-02T09:20:45;99702.06;;;28.83;100.00
5966;BME280;3009;43.224;27.976;2023-07-02T09:23:14;99695.84;;;28.69;100.00
5966;BME280;3009;43.224;27.976;2023-07-02T09:25:44;99693.84;;;28.70;100.00
5966;BME280;3009;43.224;27.976;2023-07-02T09:28:17;99697.09;;;28.77;100.00
5966;BME280;3009;43.224;27.976;2023-07-02T09:30:50;99694.53;;;28.61;100.00
5966;BME280;3009;43.224;27.976;2023-07-02T09:33:19;99687.88;;;28.71;99.71
5966;BME280;3009;43.224;27.976;2023-07-02T09:35:49;99693.22;;;28.53;100.00
5966;BME280;3009;43.224;27.976;2023-07-02T09:38:19;99689.50;;;28.46;100.00
5966;BME280;3009;43.224;27.976;2023-07-02T09:40:51;99683.59;;;28.35;100.00
5966;BME280;3009;43.224;27.976;2023-07-02T09:43:20;99684.47;;;28.32;100.00
5966;BME280;3009;43.224;27.976;2023-07-02T09:45:50;99694.50;;;28.04;100.00
5966;BME280;3009;43.224;27.976;2023-07-02T09:48:22;99695.81;;;28.12;100.00
5966;BME280;3009;43.224;27.976;2023-07-02T09:50:53;99694.22;;;28.24;100.00
5966;BME280;3009;43.224;27.976;2023-07-02T09:53:22;99704.59;;;28.20;100.00
5966;BME280;3009;43.224;27.976;2023-07-02T09:55:52;99700.22;;;28.09;100.00
5966;BME280;3009;43.224;27.976;2023-07-02T09:58:21;99704.22;;;28.31;100.00
5966;BME280;3009;43.224;27.976;2023-07-02T10:00:50;99697.63;;;28.28;100.00
5966;BME280;3009;43.224;27.976;2023-07-02T10:03:28;99695.34;;;28.14;100.00
5966;BME280;3009;43.224;27.976;2023-07-02T10:06:04;99694.59;;;28.13;100.00
5966;BME280;3009;43.224;27.976;2023-07-02T10:08:33;99690.59;;;28.27;100.00
5966;BME280;3009;43.224;27.976;2023-07-02T10:11:12;99683.84;;;28.28;100.00
5966;BME280;3009;43.224;27.976;2023-07-02T10:13:41;99687.09;;;28.14;100.00
5966;BME280;3009;43.224;27.976;2023-07-02T10:16:09;99691.78;;;28.26;100.00
5966;BME280;3009;43.224;27.976;2023-07-02T10:18:38;99695.59;;;28.06;100.00
5966;BME280;3009;43.224;27.976;2023-07-02T10:21:13;99698.28;;;28.32;100.00
5966;BME280;3009;43.224;27.976;2023-07-02T10:23:42;99694.97;;;28.37;100.00
5966;BME280;3009;43.224;27.976;2023-07-02T10:26:14;99678.88;;;28.36;100.00
5966;BME280;3009;43.224;27.976;2023-07-02T10:28:55;99681.41;;;28.30;100.00
5966;BME280;3009;43.224;27.976;2023-07-02T10:31:24;99677.00;;;28.33;100.00
5966;BME280;3009;43.224;27.976;2023-07-02T10:33:53;99676.66;;;28.08;100.00
5966;BME280;3009;43.224;27.976;2023-07-02T10:36:23;99671.38;;;28.01;100.00
5966;BME280;3009;43.224;27.976;2023-07-02T10:38:51;99669.91;;;28.09;100.00
5966;BME280;3009;43.224;27.976;2023-07-02T10:41:28;99664.97;;;27.91;100.00
5966;BME280;3009;43.224;27.976;2023-07-02T10:44:05;99672.91;;;27.89;100.00
5966;BME280;3009;43.224;27.976;2023-07-02T10:46:34;99673.88;;;27.96;100.00
5966;BME280;3009;43.224;27.976;2023-07-02T10:49:03;99665.66;;;27.83;100.00
5966;BME280;3009;43.224;27.976;2023-07-02T10:51:31;99670.75;;;27.71;100.00
5966;BME280;3009;43.224;27.976;2023-07-02T10:54:01;99661.38;;;27.69;100.00
5966;BME280;3009;43.224;27.976;2023-07-02T10:56:32;99654.66;;;27.70;100.00
5966;BME280;3009;43.224;27.976;2023-07-02T10:59:01;99652.25;;;27.59;100.00
5966;BME280;3009;43.224;27.976;2023-07-02T11:01:30;99653.00;;;27.59;100.00
5966;BME280;3009;43.224;27.976;2023-07-02T11:04:00;99649.50;;;27.59;100.00
5966;BME280;3009;43.224;27.976;2023-07-02T11:06:30;99646.19;;;27.64;100.00
5966;BME280;3009;43.224;27.976;2023-07-02T11:08:59;99640.34;;;27.62;100.00
5966;BME280;3009;43.224;27.976;2023-07-02T11:11:28;99645.50;;;27.73;100.00
5966;BME280;3009;43.224;27.976;2023-07-02T11:13:58;99649.91;;;27.83;100.00
5966;BME280;3009;43.224;27.976;2023-07-02T11:16:27;99650.91;;;27.76;100.00
5966;BME280;3009;43.224;27.976;2023-07-02T11:19:07;99653.28;;;28.00;100.00
5966;BME280;3009;43.224;27.976;2023-07-02T11:21:36;99646.16;;;28.25;100.00
5966;BME280;3009;43.224;27.976;2023-07-02T11:24:06;99641.09;;;28.45;100.00
5966;BME280;3009;43.224;27.976;2023-07-02T11:26:36;99634.00;;;28.79;96.79
5966;BME280;3009;43.224;27.976;2023-07-02T11:29:07;99636.81;;;28.67;95.26
5966;BME280;3009;43.224;27.976;2023-07-02T11:31:38;99629.31;;;28.67;97.95
5966;BME280;3009;43.224;27.976;2023-07-02T11:34:12;99628.25;;;28.52;100.00
5966;BME280;3009;43.224;27.976;2023-07-02T11:36:42;99636.81;;;28.67;99.95
5966;BME280;3009;43.224;27.976;2023-07-02T11:39:10;99632.09;;;28.67;94.93
5966;BME280;3009;43.224;27.976;2023-07-02T11:41:42;99638.72;;;28.57;95.23
5966;BME280;3009;43.224;27.976;2023-07-02T11:44:12;99633.00;;;27.94;100.00
5966;BME280;3009;43.224;27.976;2023-07-02T11:46:40;99641.91;;;27.63;100.00
5966;BME280;3009;43.224;27.976;2023-07-02T11:49:09;99635.84;;;27.55;100.00
5966;BME280;3009;43.224;27.976;2023-07-02T11:51:37;99632.44;;;27.38;100.00
5966;BME280;3009;43.224;27.976;2023-07-02T11:54:07;99627.25;;;27.53;100.00
5966;BME280;3009;43.224;27.976;2023-07-02T11:56:35;99645.28;;;27.67;100.00
5966;BME280;3009;43.224;27.976;2023-07-02T11:59:05;99633.66;;;27.63;100.00
5966;BME280;3009;43.224;27.976;2023-07-02T12:01:35;99630.97;;;27.72;100.00
5966;BME280;3009;43.224;27.976;2023-07-02T12:04:03;99627.94;;;27.92;100.00
5966;BME280;3009;43.224;27.976;2023-07-02T12:06:32;99635.31;;;28.08;100.00
5966;BME280;3009;43.224;27.976;2023-07-02T12:09:00;99627.28;;;28.01;100.00
5966;BME280;3009;43.224;27.976;2023-07-02T12:11:29;99620.22;;;28.00;100.00
5966;BME280;3009;43.224;27.976;2023-07-02T12:13:57;99624.09;;;28.03;100.00
5966;BME280;3009;43.224;27.976;2023-07-02T12:16:25;99628.91;;;28.11;100.00
5966;BME280;3009;43.224;27.976;2023-07-02T12:18:55;99627.66;;;28.13;100.00
5966;BME280;3009;43.224;27.976;2023-07-02T12:21:23;99632.28;;;28.16;99.56
5966;BME280;3009;43.224;27.976;2023-07-02T12:23:52;99630.56;;;28.09;100.00
5966;BME280;3009;43.224;27.976;2023-07-02T12:26:20;99628.31;;;28.17;100.00
5966;BME280;3009;43.224;27.976;2023-07-02T12:28:49;99635.66;;;28.33;99.71
5966;BME280;3009;43.224;27.976;2023-07-02T12:31:17;99636.41;;;28.55;96.03
5966;BME280;3009;43.224;27.976;2023-07-02T12:33:46;99617.44;;;28.79;93.21
5966;BME280;3009;43.224;27.976;2023-07-02T12:36:16;99616.78;;;29.07;92.41
5966;BME280;3009;43.224;27.976;2023-07-02T12:38:45;99625.31;;;29.22;90.11
5966;BME280;3009;43.224;27.976;2023-07-02T12:41:13;99626.19;;;29.19;91.33
5966;BME280;3009;43.224;27.976;2023-07-02T12:43:42;99621.31;;;28.91;90.80
5966;BME280;3009;43.224;27.976;2023-07-02T12:46:11;99613.72;;;28.73;94.56
5966;BME280;3009;43.224;27.976;2023-07-02T12:48:39;99630.00;;;28.58;96.78
5966;BME280;3009;43.224;27.976;2023-07-02T12:51:07;99624.50;;;28.58;97.97
5966;BME280;3009;43.224;27.976;2023-07-02T12:53:37;99634.97;;;28.41;100.00
5966;BME280;3009;43.224;27.976;2023-07-02T12:56:05;99629.69;;;28.34;99.25
5966;BME280;3009;43.224;27.976;2023-07-02T12:58:34;99615.50;;;28.23;100.00
5966;BME280;3009;43.224;27.976;2023-07-02T13:01:02;99609.16;;;27.78;100.00
5966;BME280;3009;43.224;27.976;2023-07-02T13:03:30;99619.38;;;27.77;100.00
5966;BME280;3009;43.224;27.976;2023-07-02T13:05:59;99621.69;;;27.79;100.00
5966;BME280;3009;43.224;27.976;2023-07-02T13:08:27;99621.53;;;27.61;100.00
5966;BME280;3009;43.224;27.976;2023-07-02T13:10:57;99617.34;;;27.43;100.00
5966;BME280;3009;43.224;27.976;2023-07-02T13:13:26;99620.31;;;27.62;100.00
5966;BME280;3009;43.224;27.976;2023-07-02T13:15:55;99625.13;;;27.70;100.00
5966;BME280;3009;43.224;27.976;2023-07-02T13:18:24;99613.94;;;27.26;100.00